메인 페이지
METAR-TAF:

METAR-TAF

공항 :

방기 음포코 국제공항

방기, 중앙아프리카공화국

위도: 04-24N, 경도: 018-31E, 고도: 365m

현재 날씨관측

예보는 50분 전, 07:00시(UTC)에 발표되었습니다.
여러 방향의 바람 2kt
온도 22°C
습도 94%
기압 1012 hPa
시정 10km 이상
고도 1300ft 상공 구름 보통

METAR: FEFF 020700Z VRB02KT 9999 SCT013 22/21 Q1012 NOSIG

시각: 08:50 (07:50 UTC)

예보

예보는 2 시간 50분 전, 05:00시(UTC)에 발표되었습니다.
예보 대상 시간: 02일 06시부터 03일 12시까지 (UTC)
여러 방향의 바람 4kt
시정 10km 이상
고도 1000ft 상공 구름 보통
확률 30% :
일시적
02일 22시부터 03일 04시까지 (UTC)
15kt
고도 1000ft 상공 구름 많음
고도 3300ft 상공 구름 조금, 적란운.
뇌우, 비

TAF: FEFF 020500Z 0206/0312 VRB04KT 9999 SCT010 PROB30 TEMPO 0222/0304 09015KT TSRA BKN010 FEW033CB

4,000개 이상의 공항 관측 자료 및 예보 (METAR 및 TAF 보고).

지도상에서 검색 가능한 기상관측소가 노란 점과 빨간 점으로 표시되어 있습니다.

기상관측소 명을 보려면 표시 위로 마우스를 이동하세요.

날씨 관측과 예보를 보려면 클릭하세요.

지도 변경 : 확대하려면 엑스 표시가 있는 녹색 버튼, 축소하려면 빼기 표시가 있는 녹색 버튼, 다음 페이지의 지도를 보려면 녹색 화살표를 클릭하세요.


METAR-TAF: